Arethusa — 9HJR9 — position and weather

sailwx.info

Track history (hours):
 
Tides and Currents Weather Stations Pressure Air Temp Water Temp Dewpoint Dewpoint Depression Visibility Wind Speed Wind Dir Waves Ship Positions

Arethusa

Last reported at 2017-Apr-25 16:31 UTC. Time now 2017-Apr-25 16:34 UTC.
Position N 44°25' E 008°55'.

Length 60 m; draft 3 m.

Type: Passenger vessel. MMSI: 249069000.

Date/timePositionNaut miles runAvg speedWind from/ knotsBaromVisibWave heightAir tempDewpointWater temp
2017-Apr-25 16:31N 44°25' E 008°55'0 0.0
2017-Apr-25 16:01N 44°25' E 008°55'0 0.8
2017-Apr-25 15:31N 44°24' E 008°55'511.0
2017-Apr-25 15:01N 44°20' E 009°00'1111.3
2017-Apr-25 14:01N 44°14' E 009°14'611.2
2017-Apr-25 13:30N 44°11' E 009°20'611.4
2017-Apr-25 13:01N 44°08' E 009°27'611.4
2017-Apr-25 12:31N 44°05' E 009°34'611.3
2017-Apr-25 12:01N 44°02' E 009°40'611.3
2017-Apr-25 11:31N 43°59' E 009°47'510.5
2017-Apr-25 11:01N 43°59' E 009°54'511.0
2017-Apr-25 10:31N 44°01' E 010°02'1 2.5
2017-Apr-25 09:55N 44°02' E 010°02'0 0.0
2017-Apr-25 09:30N 44°02' E 010°02'0 0.0
2017-Apr-25 09:01N 44°02' E 010°02'0 0.0
2017-Apr-25 08:31N 44°02' E 010°02'0 0.0
2017-Apr-25 08:01N 44°02' E 010°02'0 0.0
2017-Apr-25 07:31N 44°02' E 010°02'0 0.0
2017-Apr-25 07:00N 44°02' E 010°02'0 0.0
2017-Apr-25 06:31N 44°02' E 010°02'0 0.0
2017-Apr-25 06:00N 44°02' E 010°02'0 0.0
2017-Apr-25 05:31N 44°02' E 010°02'0 0.0
2017-Apr-25 05:00N 44°02' E 010°02'1 2.1
2017-Apr-25 04:31N 44°01' E 010°03'4 8.8
2017-Apr-25 04:01N 43°57' E 010°03'510.8
2017-Apr-25 03:30N 43°51' E 010°03'611.2
2017-Apr-25 03:00N 43°46' E 010°04'611.2
2017-Apr-25 02:31N 43°40' E 010°04'611.1
2017-Apr-25 02:01N 43°35' E 010°04'611.1
2017-Apr-25 01:30N 43°29' E 010°03'511.0
2017-Apr-25 01:00N 43°24' E 010°03'510.9
2017-Apr-25 00:30N 43°18' E 010°02'21 0.6
2017-Apr-23 11:32N 43°03' E 010°22'410.9
2017-Apr-23 11:08N 43°07' E 010°23'1810.6
2017-Apr-23 09:26N 43°22' E 010°09'410.0
2017-Apr-23 09:00N 43°27' E 010°11'510.0
2017-Apr-23 08:28N 43°31' E 010°14'3 6.5
2017-Apr-23 07:58N 43°33' E 010°18'0 0.0
2017-Apr-23 07:28N 43°33' E 010°18'0 0.0
2017-Apr-23 06:55N 43°33' E 010°18'0 0.0
2017-Apr-23 06:28N 43°33' E 010°18'0 0.0
2017-Apr-23 05:58N 43°33' E 010°18'0 0.0
2017-Apr-23 05:28N 43°33' E 010°18'0 0.0
2017-Apr-23 04:52N 43°33' E 010°18'0 0.0
2017-Apr-23 04:16N 43°33' E 010°18'0 0.0
2017-Apr-23 03:58N 43°33' E 010°18'0 0.0
2017-Apr-23 03:28N 43°33' E 010°18'0 0.0
2017-Apr-23 02:58N 43°33' E 010°18'0 0.0
2017-Apr-23 02:28N 43°33' E 010°18'0 0.0
2017-Apr-23 01:58N 43°33' E 010°18'0 0.0
2017-Apr-23 01:28N 43°33' E 010°18'0 0.0
2017-Apr-23 00:58N 43°33' E 010°18'0 0.0
2017-Apr-23 00:28N 43°33' E 010°18'0 0.0
2017-Apr-22 23:58N 43°33' E 010°18'0 0.0
2017-Apr-22 23:28N 43°33' E 010°18'0 0.0
2017-Apr-22 22:58N 43°33' E 010°18'0 0.0
2017-Apr-22 22:28N 43°33' E 010°18'0 0.0
2017-Apr-22 21:58N 43°33' E 010°18'0 0.0
2017-Apr-22 21:28N 43°33' E 010°18'0 0.0
2017-Apr-22 20:58N 43°33' E 010°18'0 0.0
2017-Apr-22 20:28N 43°33' E 010°18'0 0.0
2017-Apr-22 19:52N 43°33' E 010°18'0 0.0
2017-Apr-22 19:25N 43°33' E 010°18'0 0.0
2017-Apr-22 18:58N 43°33' E 010°18'0 0.0
2017-Apr-22 18:25N 43°33' E 010°18'0 0.0
2017-Apr-22 17:58N 43°33' E 010°18'0 0.0
2017-Apr-22 17:28N 43°33' E 010°18'0 0.0
2017-Apr-22 16:58N 43°33' E 010°18'0 0.0
2017-Apr-22 16:25N 43°33' E 010°18'0 0.0
2017-Apr-22 15:58N 43°33' E 010°18'0 0.0
2017-Apr-22 15:22N 43°33' E 010°18'0 0.0
2017-Apr-22 14:58N 43°33' E 010°18'0 0.0
2017-Apr-22 14:22N 43°33' E 010°18'0 0.0
2017-Apr-22 13:28N 43°33' E 010°18'0 0.0
2017-Apr-22 12:58N 43°33' E 010°18'0 0.0
2017-Apr-22 12:28N 43°33' E 010°18'0 0.0
2017-Apr-22 11:55N 43°33' E 010°18'0 0.0
2017-Apr-22 11:28N 43°33' E 010°18'0 0.0
2017-Apr-22 10:52N 43°33' E 010°18'0 0.0
2017-Apr-22 10:28N 43°33' E 010°18'0 0.0
2017-Apr-22 09:58N 43°33' E 010°18'0 0.0
2017-Apr-22 09:28N 43°33' E 010°18'0 0.0
2017-Apr-22 08:52N 43°33' E 010°18'0 0.0
2017-Apr-22 08:28N 43°33' E 010°18'0 0.0
2017-Apr-22 07:52N 43°33' E 010°18'0 0.0
2017-Apr-22 07:25N 43°33' E 010°18'0 0.0
2017-Apr-22 06:52N 43°33' E 010°18'0 0.0
2017-Apr-22 06:22N 43°33' E 010°18'0 0.0
2017-Apr-22 05:58N 43°33' E 010°18'0 0.0
2017-Apr-22 05:16N 43°33' E 010°18'0 0.0
2017-Apr-22 04:40N 43°33' E 010°18'0 0.0
2017-Apr-22 04:28N 43°33' E 010°18'0 0.0
2017-Apr-22 03:58N 43°33' E 010°18'0 0.0
2017-Apr-22 03:28N 43°33' E 010°18'0 0.0
2017-Apr-22 02:58N 43°33' E 010°18'0 0.0
2017-Apr-22 02:28N 43°33' E 010°18'0 0.0
2017-Apr-22 01:58N 43°33' E 010°18'0 0.0
2017-Apr-22 01:28N 43°33' E 010°18'0 0.0
2017-Apr-22 00:58N 43°33' E 010°18'0 0.0
2017-Apr-22 00:28N 43°33' E 010°18'0 0.0
2017-Apr-21 23:58N 43°33' E 010°18'0 0.0
2017-Apr-21 23:28N 43°33' E 010°18'0 0.0
2017-Apr-21 22:58N 43°33' E 010°18'0 0.0
2017-Apr-21 22:30N 43°33' E 010°18'1 2.5
2017-Apr-21 22:00N 43°32' E 010°17'3 6.1
2017-Apr-21 21:30N 43°30' E 010°14'510.8
2017-Apr-21 21:00N 43°26' E 010°09'611.0
2017-Apr-21 20:30N 43°22' E 010°03'510.9
2017-Apr-21 20:00N 43°18' E 009°58'610.8
2017-Apr-21 19:30N 43°14' E 009°53'13 0.3
2017-Apr-20 01:29N 43°16' E 010°10'510.5
2017-Apr-20 01:00N 43°20' E 010°08'510.6
2017-Apr-20 00:30N 43°26' E 010°07'510.6
2017-Apr-20 00:00N 43°31' E 010°05'510.5
2017-Apr-19 23:30N 43°36' E 010°05'510.4
2017-Apr-19 23:00N 43°41' E 010°04'510.5
2017-Apr-19 22:30N 43°47' E 010°04'510.7
2017-Apr-19 22:00N 43°52' E 010°04'510.6
2017-Apr-19 21:30N 43°57' E 010°03'5 7.5
2017-Apr-19 20:51N 44°02' E 010°02'0 0.0
2017-Apr-19 20:30N 44°02' E 010°02'0 0.0
2017-Apr-19 20:00N 44°02' E 010°02'0 0.0
2017-Apr-19 19:27N 44°02' E 010°02'0 0.0
2017-Apr-19 18:57N 44°02' E 010°02'0 0.0
2017-Apr-19 18:27N 44°02' E 010°02'0 0.0
2017-Apr-19 18:00N 44°02' E 010°02'0 0.0
2017-Apr-19 17:30N 44°02' E 010°02'0 0.0
2017-Apr-19 17:00N 44°02' E 010°02'0 0.0
2017-Apr-19 16:30N 44°02' E 010°02'0 0.0
2017-Apr-19 16:00N 44°02' E 010°02'0 0.0
2017-Apr-19 15:30N 44°02' E 010°02'0 0.0
2017-Apr-19 14:57N 44°02' E 010°02'0 0.0
2017-Apr-19 14:30N 44°02' E 010°02'0 0.0
2017-Apr-19 13:18N 44°02' E 010°02'0 0.0
2017-Apr-19 12:57N 44°02' E 010°02'0 0.0
2017-Apr-19 12:30N 44°02' E 010°02'0 0.0
2017-Apr-19 12:00N 44°02' E 010°02'0 0.0
2017-Apr-19 11:27N 44°02' E 010°02'0 0.0
2017-Apr-19 11:00N 44°02' E 010°02'0 0.0
2017-Apr-19 10:30N 44°02' E 010°02'0 0.0
2017-Apr-19 10:00N 44°02' E 010°02'0 0.0
2017-Apr-19 09:30N 44°02' E 010°02'0 0.0
2017-Apr-19 09:00N 44°02' E 010°02'0 0.0
2017-Apr-19 08:30N 44°02' E 010°02'0 0.0
2017-Apr-19 08:00N 44°02' E 010°02'0 0.0
2017-Apr-19 07:30N 44°02' E 010°02'0 0.0
2017-Apr-19 07:00N 44°02' E 010°02'0 0.0
2017-Apr-19 06:30N 44°02' E 010°02'0 0.0
2017-Apr-19 06:00N 44°02' E 010°02'0 0.0
2017-Apr-19 05:30N 44°02' E 010°02'0 0.0
2017-Apr-19 05:00N 44°02' E 010°02'0 0.0
2017-Apr-19 04:30N 44°02' E 010°02'0 0.0
2017-Apr-19 04:00N 44°02' E 010°02'0 0.0
2017-Apr-19 03:30N 44°02' E 010°02'0 0.0
2017-Apr-19 03:00N 44°02' E 010°02'0 0.0
2017-Apr-19 02:30N 44°02' E 010°02'0 0.0
2017-Apr-19 02:00N 44°02' E 010°02'0 0.0
2017-Apr-19 01:30N 44°02' E 010°02'0 0.0
2017-Apr-19 01:00N 44°02' E 010°02'0 0.0
2017-Apr-19 00:30N 44°02' E 010°02'0 0.0
2017-Apr-19 00:00N 44°02' E 010°02'0 0.0
2017-Apr-18 23:30N 44°02' E 010°02'0 0.0
2017-Apr-18 23:00N 44°02' E 010°02'0 0.0
2017-Apr-18 22:30N 44°02' E 010°02'0 0.0
2017-Apr-18 22:00N 44°02' E 010°02'0 0.0
2017-Apr-18 21:29N 44°02' E 010°02'0 0.0
2017-Apr-18 21:00N 44°02' E 010°02'0 0.0
2017-Apr-18 20:30N 44°02' E 010°02'0 0.0
2017-Apr-18 20:00N 44°02' E 010°02'0 0.0
2017-Apr-18 19:30N 44°02' E 010°02'0 0.0
2017-Apr-18 19:00N 44°02' E 010°02'0 0.0
2017-Apr-18 18:30N 44°02' E 010°02'0 0.0
2017-Apr-18 18:00N 44°02' E 010°02'0 0.0
2017-Apr-18 17:30N 44°02' E 010°02'0 0.0
2017-Apr-18 17:00N 44°02' E 010°02'3 6.5
2017-Apr-18 16:30N 44°02' E 009°58'510.1
2017-Apr-18 16:00N 44°03' E 009°51'0 0.5
2017-Apr-18 15:28N 44°03' E 009°51'0 0.1
2017-Apr-18 14:58N 44°03' E 009°51'0 0.0
2017-Apr-18 14:28N 44°03' E 009°51'0 0.0
2017-Apr-18 13:28N 44°03' E 009°51'0 0.0
2017-Apr-18 13:00N 44°03' E 009°51'0 0.1
2017-Apr-18 12:30N 44°03' E 009°51'0 0.0
2017-Apr-18 12:00N 44°03' E 009°51'0 0.0
2017-Apr-18 11:30N 44°03' E 009°51'0 0.0
2017-Apr-18 11:00N 44°03' E 009°51'0 0.0
2017-Apr-18 10:30N 44°03' E 009°51'0 0.0
2017-Apr-18 10:00N 44°03' E 009°51'0 0.0
2017-Apr-18 09:30N 44°03' E 009°51'0 0.0
2017-Apr-18 09:00N 44°03' E 009°51'0 0.0
2017-Apr-18 08:30N 44°03' E 009°51'0 0.0
2017-Apr-18 08:00N 44°03' E 009°51'0 0.0
2017-Apr-18 07:30N 44°03' E 009°51'0 0.0
2017-Apr-18 07:00N 44°03' E 009°51'0 0.0
2017-Apr-18 06:30N 44°03' E 009°51'0 0.0
2017-Apr-18 06:00N 44°03' E 009°51'0 0.0
2017-Apr-18 05:30N 44°03' E 009°51'0 0.0
2017-Apr-18 05:00N 44°03' E 009°51'0 0.0
2017-Apr-18 04:30N 44°03' E 009°51'0 0.0
2017-Apr-18 04:00N 44°03' E 009°51'0 0.0
2017-Apr-18 03:30N 44°03' E 009°51'0 0.0
2017-Apr-18 03:00N 44°03' E 009°51'0 0.0
2017-Apr-18 02:30N 44°03' E 009°51'0 0.0
2017-Apr-18 02:00N 44°03' E 009°51'0 0.0
2017-Apr-18 01:30N 44°03' E 009°51'0 0.0
2017-Apr-18 01:00N 44°03' E 009°51'0 0.0
2017-Apr-18 00:30N 44°03' E 009°51'0 0.0
2017-Apr-18 00:00N 44°03' E 009°51'0 0.0
2017-Apr-17 23:30N 44°03' E 009°51'0 0.0
2017-Apr-17 23:00N 44°03' E 009°51'0 0.0
2017-Apr-17 22:30N 44°03' E 009°51'0 0.0
2017-Apr-17 22:00N 44°03' E 009°51'0 0.0
2017-Apr-17 21:30N 44°03' E 009°51'0 0.0
2017-Apr-17 21:00N 44°03' E 009°51'0 0.0
2017-Apr-17 20:30N 44°03' E 009°51'0 0.9
2017-Apr-17 20:00N 44°03' E 009°51'5 9.1
2017-Apr-17 19:30N 43°60' E 009°55'511.0
2017-Apr-17 19:00N 43°60' E 009°48'510.6
2017-Apr-17 18:30N 44°02' E 009°41'611.1
2017-Apr-17 18:00N 44°05' E 009°35'611.3
2017-Apr-17 17:30N 44°09' E 009°29'611.4
2017-Apr-17 17:00N 44°13' E 009°23'8 0.7
2017-Apr-17 05:27N 44°18' E 009°15'511.4
2017-Apr-17 05:01N 44°14' E 009°10'611.8
2017-Apr-17 04:31N 44°12' E 009°03'612.2
2017-Apr-17 04:00N 44°09' E 008°55'611.9
2017-Apr-17 03:30N 44°06' E 008°48'510.6
2017-Apr-17 03:01N 44°04' E 008°42'510.4
2017-Apr-17 02:30N 44°01' E 008°35'710.3
2017-Apr-17 01:51N 43°57' E 008°27'3 9.9
2017-Apr-17 01:30N 43°56' E 008°23'5 9.9
2017-Apr-17 00:59N 43°54' E 008°17'5 9.9
2017-Apr-17 00:30N 43°51' E 008°11'3610.2
2017-Apr-16 21:01N 43°40' E 007°24'011.2
2017-Apr-16 20:59N 43°40' E 007°23'4 9.0
2017-Apr-16 20:30N 43°41' E 007°17'1 0.4
2017-Apr-16 18:49N 43°42' E 007°17'0 0.0
2017-Apr-16 13:31N 43°42' E 007°17'0 0.0
2017-Apr-16 13:16N 43°42' E 007°17'0 0.0
2017-Apr-16 12:25N 43°42' E 007°17'0 0.0
2017-Apr-16 11:52N 43°42' E 007°17'0 0.0
2017-Apr-16 11:22N 43°42' E 007°17'0 0.0
2017-Apr-16 10:46N 43°42' E 007°17'0 0.0
2017-Apr-16 10:28N 43°42' E 007°17'0 0.0
2017-Apr-16 09:46N 43°42' E 007°17'0 0.0
2017-Apr-16 09:28N 43°42' E 007°17'0 0.0
2017-Apr-16 08:58N 43°42' E 007°17'0 0.0
2017-Apr-16 08:25N 43°42' E 007°17'0 0.0
2017-Apr-16 07:58N 43°42' E 007°17'0 0.0
2017-Apr-16 07:28N 43°42' E 007°17'0 0.0
2017-Apr-16 06:52N 43°42' E 007°17'0 0.0
2017-Apr-16 06:28N 43°42' E 007°17'0 0.0
2017-Apr-16 05:52N 43°42' E 007°17'0 0.0
2017-Apr-16 05:22N 43°42' E 007°17'0 0.0
2017-Apr-16 04:52N 43°42' E 007°17'0 0.0
2017-Apr-16 04:28N 43°42' E 007°17'0 0.0
2017-Apr-16 03:58N 43°42' E 007°17'0 0.0
2017-Apr-16 03:28N 43°42' E 007°17'0 0.0
2017-Apr-16 02:58N 43°42' E 007°17'0 0.0
2017-Apr-16 02:28N 43°42' E 007°17'0 0.0
2017-Apr-16 01:58N 43°42' E 007°17'0 0.0
2017-Apr-16 01:28N 43°42' E 007°17'0 0.0
2017-Apr-16 00:58N 43°42' E 007°17'0 0.0
2017-Apr-16 00:25N 43°42' E 007°17'0 0.0
2017-Apr-15 23:58N 43°42' E 007°17'0 0.0
2017-Apr-15 23:28N 43°42' E 007°17'0 0.0
2017-Apr-15 22:58N 43°42' E 007°17'0 0.0
2017-Apr-15 22:25N 43°42' E 007°17'0 0.0
2017-Apr-15 21:58N 43°42' E 007°17'0 0.0
2017-Apr-15 21:16N 43°42' E 007°17'0 0.0
2017-Apr-15 20:52N 43°42' E 007°17'0 0.0
2017-Apr-15 19:40N 43°42' E 007°17'0 0.0
2017-Apr-15 19:28N 43°42' E 007°17'0 0.0
2017-Apr-15 18:58N 43°42' E 007°17'0 0.0
2017-Apr-15 18:28N 43°42' E 007°17'0 0.0
2017-Apr-15 17:58N 43°42' E 007°17'0 0.0
2017-Apr-15 17:22N 43°42' E 007°17'0 0.0
2017-Apr-15 16:52N 43°42' E 007°17'  
Track history (hours):
 
Tides and Currents Weather Stations Pressure Air Temp Water Temp Dewpoint Dewpoint Depression Visibility Wind Speed Wind Dir Waves Ship Positions

Arethusa

Last reported at 2017-Apr-25 16:31 UTC. Time now 2017-Apr-25 16:34 UTC.
Position N 44°25' E 008°55'.

Length 60 m; draft 3 m.

Type: Passenger vessel. MMSI: 249069000.

Date/timePositionNaut miles runAvg speedWind from/ knotsBaromVisibWave heightAir tempDewpointWater temp
2017-Apr-25 16:31N 44°25' E 008°55'0 0.0
2017-Apr-25 16:01N 44°25' E 008°55'0 0.8
2017-Apr-25 15:31N 44°24' E 008°55'511.0
2017-Apr-25 15:01N 44°20' E 009°00'1111.3
2017-Apr-25 14:01N 44°14' E 009°14'611.2
2017-Apr-25 13:30N 44°11' E 009°20'611.4
2017-Apr-25 13:01N 44°08' E 009°27'611.4
2017-Apr-25 12:31N 44°05' E 009°34'611.3
2017-Apr-25 12:01N 44°02' E 009°40'611.3
2017-Apr-25 11:31N 43°59' E 009°47'510.5
2017-Apr-25 11:01N 43°59' E 009°54'511.0
2017-Apr-25 10:31N 44°01' E 010°02'1 2.5
2017-Apr-25 09:55N 44°02' E 010°02'0 0.0
2017-Apr-25 09:30N 44°02' E 010°02'0 0.0
2017-Apr-25 09:01N 44°02' E 010°02'0 0.0
2017-Apr-25 08:31N 44°02' E 010°02'0 0.0
2017-Apr-25 08:01N 44°02' E 010°02'0 0.0
2017-Apr-25 07:31N 44°02' E 010°02'0 0.0
2017-Apr-25 07:00N 44°02' E 010°02'0 0.0
2017-Apr-25 06:31N 44°02' E 010°02'0 0.0
2017-Apr-25 06:00N 44°02' E 010°02'0 0.0
2017-Apr-25 05:31N 44°02' E 010°02'0 0.0
2017-Apr-25 05:00N 44°02' E 010°02'1 2.1
2017-Apr-25 04:31N 44°01' E 010°03'4 8.8
2017-Apr-25 04:01N 43°57' E 010°03'510.8
2017-Apr-25 03:30N 43°51' E 010°03'611.2
2017-Apr-25 03:00N 43°46' E 010°04'611.2
2017-Apr-25 02:31N 43°40' E 010°04'611.1
2017-Apr-25 02:01N 43°35' E 010°04'611.1
2017-Apr-25 01:30N 43°29' E 010°03'511.0
2017-Apr-25 01:00N 43°24' E 010°03'510.9
2017-Apr-25 00:30N 43°18' E 010°02'21 0.6
2017-Apr-23 11:32N 43°03' E 010°22'410.9
2017-Apr-23 11:08N 43°07' E 010°23'1810.6
2017-Apr-23 09:26N 43°22' E 010°09'410.0
2017-Apr-23 09:00N 43°27' E 010°11'510.0
2017-Apr-23 08:28N 43°31' E 010°14'3 6.5
2017-Apr-23 07:58N 43°33' E 010°18'0 0.0
2017-Apr-23 07:28N 43°33' E 010°18'0 0.0
2017-Apr-23 06:55N 43°33' E 010°18'0 0.0
2017-Apr-23 06:28N 43°33' E 010°18'0 0.0
2017-Apr-23 05:58N 43°33' E 010°18'0 0.0
2017-Apr-23 05:28N 43°33' E 010°18'0 0.0
2017-Apr-23 04:52N 43°33' E 010°18'0 0.0
2017-Apr-23 04:16N 43°33' E 010°18'0 0.0
2017-Apr-23 03:58N 43°33' E 010°18'0 0.0
2017-Apr-23 03:28N 43°33' E 010°18'0 0.0
2017-Apr-23 02:58N 43°33' E 010°18'0 0.0
2017-Apr-23 02:28N 43°33' E 010°18'0 0.0
2017-Apr-23 01:58N 43°33' E 010°18'0 0.0
2017-Apr-23 01:28N 43°33' E 010°18'0 0.0
2017-Apr-23 00:58N 43°33' E 010°18'0 0.0
2017-Apr-23 00:28N 43°33' E 010°18'0 0.0
2017-Apr-22 23:58N 43°33' E 010°18'0 0.0
2017-Apr-22 23:28N 43°33' E 010°18'0 0.0
2017-Apr-22 22:58N 43°33' E 010°18'0 0.0
2017-Apr-22 22:28N 43°33' E 010°18'0 0.0
2017-Apr-22 21:58N 43°33' E 010°18'0 0.0
2017-Apr-22 21:28N 43°33' E 010°18'0 0.0
2017-Apr-22 20:58N 43°33' E 010°18'0 0.0
2017-Apr-22 20:28N 43°33' E 010°18'0 0.0
2017-Apr-22 19:52N 43°33' E 010°18'0 0.0
2017-Apr-22 19:25N 43°33' E 010°18'0 0.0
2017-Apr-22 18:58N 43°33' E 010°18'0 0.0
2017-Apr-22 18:25N 43°33' E 010°18'0 0.0
2017-Apr-22 17:58N 43°33' E 010°18'0 0.0
2017-Apr-22 17:28N 43°33' E 010°18'0 0.0
2017-Apr-22 16:58N 43°33' E 010°18'0 0.0
2017-Apr-22 16:25N 43°33' E 010°18'0 0.0
2017-Apr-22 15:58N 43°33' E 010°18'0 0.0
2017-Apr-22 15:22N 43°33' E 010°18'0 0.0
2017-Apr-22 14:58N 43°33' E 010°18'0 0.0
2017-Apr-22 14:22N 43°33' E 010°18'0 0.0
2017-Apr-22 13:28N 43°33' E 010°18'0 0.0
2017-Apr-22 12:58N 43°33' E 010°18'0 0.0
2017-Apr-22 12:28N 43°33' E 010°18'0 0.0
2017-Apr-22 11:55N 43°33' E 010°18'0 0.0
2017-Apr-22 11:28N 43°33' E 010°18'0 0.0
2017-Apr-22 10:52N 43°33' E 010°18'0 0.0
2017-Apr-22 10:28N 43°33' E 010°18'0 0.0
2017-Apr-22 09:58N 43°33' E 010°18'0 0.0
2017-Apr-22 09:28N 43°33' E 010°18'0 0.0
2017-Apr-22 08:52N 43°33' E 010°18'0 0.0
2017-Apr-22 08:28N 43°33' E 010°18'0 0.0
2017-Apr-22 07:52N 43°33' E 010°18'0 0.0
2017-Apr-22 07:25N 43°33' E 010°18'0 0.0
2017-Apr-22 06:52N 43°33' E 010°18'0 0.0
2017-Apr-22 06:22N 43°33' E 010°18'0 0.0
2017-Apr-22 05:58N 43°33' E 010°18'0 0.0
2017-Apr-22 05:16N 43°33' E 010°18'0 0.0
2017-Apr-22 04:40N 43°33' E 010°18'0 0.0
2017-Apr-22 04:28N 43°33' E 010°18'0 0.0
2017-Apr-22 03:58N 43°33' E 010°18'0 0.0
2017-Apr-22 03:28N 43°33' E 010°18'0 0.0
2017-Apr-22 02:58N 43°33' E 010°18'0 0.0
2017-Apr-22 02:28N 43°33' E 010°18'0 0.0
2017-Apr-22 01:58N 43°33' E 010°18'0 0.0
2017-Apr-22 01:28N 43°33' E 010°18'0 0.0
2017-Apr-22 00:58N 43°33' E 010°18'0 0.0
2017-Apr-22 00:28N 43°33' E 010°18'0 0.0
2017-Apr-21 23:58N 43°33' E 010°18'0 0.0
2017-Apr-21 23:28N 43°33' E 010°18'0 0.0
2017-Apr-21 22:58N 43°33' E 010°18'0 0.0
2017-Apr-21 22:30N 43°33' E 010°18'1 2.5
2017-Apr-21 22:00N 43°32' E 010°17'3 6.1
2017-Apr-21 21:30N 43°30' E 010°14'510.8
2017-Apr-21 21:00N 43°26' E 010°09'611.0
2017-Apr-21 20:30N 43°22' E 010°03'510.9
2017-Apr-21 20:00N 43°18' E 009°58'610.8
2017-Apr-21 19:30N 43°14' E 009°53'13 0.3
2017-Apr-20 01:29N 43°16' E 010°10'510.5
2017-Apr-20 01:00N 43°20' E 010°08'510.6
2017-Apr-20 00:30N 43°26' E 010°07'510.6
2017-Apr-20 00:00N 43°31' E 010°05'510.5
2017-Apr-19 23:30N 43°36' E 010°05'510.4
2017-Apr-19 23:00N 43°41' E 010°04'510.5
2017-Apr-19 22:30N 43°47' E 010°04'510.7
2017-Apr-19 22:00N 43°52' E 010°04'510.6
2017-Apr-19 21:30N 43°57' E 010°03'5 7.5
2017-Apr-19 20:51N 44°02' E 010°02'0 0.0
2017-Apr-19 20:30N 44°02' E 010°02'0 0.0
2017-Apr-19 20:00N 44°02' E 010°02'0 0.0
2017-Apr-19 19:27N 44°02' E 010°02'0 0.0
2017-Apr-19 18:57N 44°02' E 010°02'0 0.0
2017-Apr-19 18:27N 44°02' E 010°02'0 0.0
2017-Apr-19 18:00N 44°02' E 010°02'0 0.0
2017-Apr-19 17:30N 44°02' E 010°02'0 0.0
2017-Apr-19 17:00N 44°02' E 010°02'0 0.0
2017-Apr-19 16:30N 44°02' E 010°02'0 0.0
2017-Apr-19 16:00N 44°02' E 010°02'0 0.0
2017-Apr-19 15:30N 44°02' E 010°02'0 0.0
2017-Apr-19 14:57N 44°02' E 010°02'0 0.0
2017-Apr-19 14:30N 44°02' E 010°02'0 0.0
2017-Apr-19 13:18N 44°02' E 010°02'0 0.0
2017-Apr-19 12:57N 44°02' E 010°02'0 0.0
2017-Apr-19 12:30N 44°02' E 010°02'0 0.0
2017-Apr-19 12:00N 44°02' E 010°02'0 0.0
2017-Apr-19 11:27N 44°02' E 010°02'0 0.0
2017-Apr-19 11:00N 44°02' E 010°02'0 0.0
2017-Apr-19 10:30N 44°02' E 010°02'0 0.0
2017-Apr-19 10:00N 44°02' E 010°02'0 0.0
2017-Apr-19 09:30N 44°02' E 010°02'0 0.0
2017-Apr-19 09:00N 44°02' E 010°02'0 0.0
2017-Apr-19 08:30N 44°02' E 010°02'0 0.0
2017-Apr-19 08:00N 44°02' E 010°02'0 0.0
2017-Apr-19 07:30N 44°02' E 010°02'0 0.0
2017-Apr-19 07:00N 44°02' E 010°02'0 0.0
2017-Apr-19 06:30N 44°02' E 010°02'0 0.0
2017-Apr-19 06:00N 44°02' E 010°02'0 0.0
2017-Apr-19 05:30N 44°02' E 010°02'0 0.0
2017-Apr-19 05:00N 44°02' E 010°02'0 0.0
2017-Apr-19 04:30N 44°02' E 010°02'0 0.0
2017-Apr-19 04:00N 44°02' E 010°02'0 0.0
2017-Apr-19 03:30N 44°02' E 010°02'0 0.0
2017-Apr-19 03:00N 44°02' E 010°02'0 0.0
2017-Apr-19 02:30N 44°02' E 010°02'0 0.0
2017-Apr-19 02:00N 44°02' E 010°02'0 0.0
2017-Apr-19 01:30N 44°02' E 010°02'0 0.0
2017-Apr-19 01:00N 44°02' E 010°02'0 0.0
2017-Apr-19 00:30N 44°02' E 010°02'0 0.0
2017-Apr-19 00:00N 44°02' E 010°02'0 0.0
2017-Apr-18 23:30N 44°02' E 010°02'0 0.0
2017-Apr-18 23:00N 44°02' E 010°02'0 0.0
2017-Apr-18 22:30N 44°02' E 010°02'0 0.0
2017-Apr-18 22:00N 44°02' E 010°02'0 0.0
2017-Apr-18 21:29N 44°02' E 010°02'0 0.0
2017-Apr-18 21:00N 44°02' E 010°02'0 0.0
2017-Apr-18 20:30N 44°02' E 010°02'0 0.0
2017-Apr-18 20:00N 44°02' E 010°02'0 0.0
2017-Apr-18 19:30N 44°02' E 010°02'0 0.0
2017-Apr-18 19:00N 44°02' E 010°02'0 0.0
2017-Apr-18 18:30N 44°02' E 010°02'0 0.0
2017-Apr-18 18:00N 44°02' E 010°02'0 0.0
2017-Apr-18 17:30N 44°02' E 010°02'0 0.0
2017-Apr-18 17:00N 44°02' E 010°02'3 6.5
2017-Apr-18 16:30N 44°02' E 009°58'510.1
2017-Apr-18 16:00N 44°03' E 009°51'0 0.5
2017-Apr-18 15:28N 44°03' E 009°51'0 0.1
2017-Apr-18 14:58N 44°03' E 009°51'0 0.0
2017-Apr-18 14:28N 44°03' E 009°51'0 0.0
2017-Apr-18 13:28N 44°03' E 009°51'0 0.0
2017-Apr-18 13:00N 44°03' E 009°51'0 0.1
2017-Apr-18 12:30N 44°03' E 009°51'0 0.0
2017-Apr-18 12:00N 44°03' E 009°51'0 0.0
2017-Apr-18 11:30N 44°03' E 009°51'0 0.0
2017-Apr-18 11:00N 44°03' E 009°51'0 0.0
2017-Apr-18 10:30N 44°03' E 009°51'0 0.0
2017-Apr-18 10:00N 44°03' E 009°51'0 0.0
2017-Apr-18 09:30N 44°03' E 009°51'0 0.0
2017-Apr-18 09:00N 44°03' E 009°51'0 0.0
2017-Apr-18 08:30N 44°03' E 009°51'0 0.0
2017-Apr-18 08:00N 44°03' E 009°51'0 0.0
2017-Apr-18 07:30N 44°03' E 009°51'0 0.0
2017-Apr-18 07:00N 44°03' E 009°51'0 0.0
2017-Apr-18 06:30N 44°03' E 009°51'0 0.0
2017-Apr-18 06:00N 44°03' E 009°51'0 0.0
2017-Apr-18 05:30N 44°03' E 009°51'0 0.0
2017-Apr-18 05:00N 44°03' E 009°51'0 0.0
2017-Apr-18 04:30N 44°03' E 009°51'0 0.0
2017-Apr-18 04:00N 44°03' E 009°51'0 0.0
2017-Apr-18 03:30N 44°03' E 009°51'0 0.0
2017-Apr-18 03:00N 44°03' E 009°51'0 0.0
2017-Apr-18 02:30N 44°03' E 009°51'0 0.0
2017-Apr-18 02:00N 44°03' E 009°51'0 0.0
2017-Apr-18 01:30N 44°03' E 009°51'0 0.0
2017-Apr-18 01:00N 44°03' E 009°51'0 0.0
2017-Apr-18 00:30N 44°03' E 009°51'0 0.0
2017-Apr-18 00:00N 44°03' E 009°51'0 0.0
2017-Apr-17 23:30N 44°03' E 009°51'0 0.0
2017-Apr-17 23:00N 44°03' E 009°51'0 0.0
2017-Apr-17 22:30N 44°03' E 009°51'0 0.0
2017-Apr-17 22:00N 44°03' E 009°51'0 0.0
2017-Apr-17 21:30N 44°03' E 009°51'0 0.0
2017-Apr-17 21:00N 44°03' E 009°51'0 0.0
2017-Apr-17 20:30N 44°03' E 009°51'0 0.9
2017-Apr-17 20:00N 44°03' E 009°51'5 9.1
2017-Apr-17 19:30N 43°60' E 009°55'511.0
2017-Apr-17 19:00N 43°60' E 009°48'510.6
2017-Apr-17 18:30N 44°02' E 009°41'611.1
2017-Apr-17 18:00N 44°05' E 009°35'611.3
2017-Apr-17 17:30N 44°09' E 009°29'611.4
2017-Apr-17 17:00N 44°13' E 009°23'8 0.7
2017-Apr-17 05:27N 44°18' E 009°15'511.4
2017-Apr-17 05:01N 44°14' E 009°10'611.8
2017-Apr-17 04:31N 44°12' E 009°03'612.2
2017-Apr-17 04:00N 44°09' E 008°55'611.9
2017-Apr-17 03:30N 44°06' E 008°48'510.6
2017-Apr-17 03:01N 44°04' E 008°42'510.4
2017-Apr-17 02:30N 44°01' E 008°35'710.3
2017-Apr-17 01:51N 43°57' E 008°27'3 9.9
2017-Apr-17 01:30N 43°56' E 008°23'5 9.9
2017-Apr-17 00:59N 43°54' E 008°17'5 9.9
2017-Apr-17 00:30N 43°51' E 008°11'3610.2
2017-Apr-16 21:01N 43°40' E 007°24'011.2
2017-Apr-16 20:59N 43°40' E 007°23'4 9.0
2017-Apr-16 20:30N 43°41' E 007°17'1 0.4
2017-Apr-16 18:49N 43°42' E 007°17'0 0.0
2017-Apr-16 13:31N 43°42' E 007°17'0 0.0
2017-Apr-16 13:16N 43°42' E 007°17'0 0.0
2017-Apr-16 12:25N 43°42' E 007°17'0 0.0
2017-Apr-16 11:52N 43°42' E 007°17'0 0.0
2017-Apr-16 11:22N 43°42' E 007°17'0 0.0
2017-Apr-16 10:46N 43°42' E 007°17'0 0.0
2017-Apr-16 10:28N 43°42' E 007°17'0 0.0
2017-Apr-16 09:46N 43°42' E 007°17'0 0.0
2017-Apr-16 09:28N 43°42' E 007°17'0 0.0
2017-Apr-16 08:58N 43°42' E 007°17'0 0.0
2017-Apr-16 08:25N 43°42' E 007°17'0 0.0
2017-Apr-16 07:58N 43°42' E 007°17'0 0.0
2017-Apr-16 07:28N 43°42' E 007°17'0 0.0
2017-Apr-16 06:52N 43°42' E 007°17'0 0.0
2017-Apr-16 06:28N 43°42' E 007°17'0 0.0
2017-Apr-16 05:52N 43°42' E 007°17'0 0.0
2017-Apr-16 05:22N 43°42' E 007°17'0 0.0
2017-Apr-16 04:52N 43°42' E 007°17'0 0.0
2017-Apr-16 04:28N 43°42' E 007°17'0 0.0
2017-Apr-16 03:58N 43°42' E 007°17'0 0.0
2017-Apr-16 03:28N 43°42' E 007°17'0 0.0
2017-Apr-16 02:58N 43°42' E 007°17'0 0.0
2017-Apr-16 02:28N 43°42' E 007°17'0 0.0
2017-Apr-16 01:58N 43°42' E 007°17'0 0.0
2017-Apr-16 01:28N 43°42' E 007°17'0 0.0
2017-Apr-16 00:58N 43°42' E 007°17'0 0.0
2017-Apr-16 00:25N 43°42' E 007°17'0 0.0
2017-Apr-15 23:58N 43°42' E 007°17'0 0.0
2017-Apr-15 23:28N 43°42' E 007°17'0 0.0
2017-Apr-15 22:58N 43°42' E 007°17'0 0.0
2017-Apr-15 22:25N 43°42' E 007°17'0 0.0
2017-Apr-15 21:58N 43°42' E 007°17'0 0.0
2017-Apr-15 21:16N 43°42' E 007°17'0 0.0
2017-Apr-15 20:52N 43°42' E 007°17'0 0.0
2017-Apr-15 19:40N 43°42' E 007°17'0 0.0
2017-Apr-15 19:28N 43°42' E 007°17'0 0.0
2017-Apr-15 18:58N 43°42' E 007°17'0 0.0
2017-Apr-15 18:28N 43°42' E 007°17'0 0.0
2017-Apr-15 17:58N 43°42' E 007°17'0 0.0
2017-Apr-15 17:22N 43°42' E 007°17'0 0.0
2017-Apr-15 16:52N 43°42' E 007°17'  

Dump ship's entire track history